Flight Track Log - Related Links

Times and Time Zones

All times are in EDT time to prevent confusion due to time zone crossing. See the N637DL flight status page for this flight to view local times or setup timezone preferences in your user account.

Time Position Orientation Groundspeed Altitude Reporting Facility
EDT Latitude Longitude Course Direction KTS MPH feet Rate Location/Type
Tue 07:51:01 PM 33.6500 -84.3667 59° Northeast 182 209 2,800  Level Atlanta TRACON
Tue 07:52:01 PM 33.6833 -84.3000 15° North 248 285 4,500 2,316 Climbing Atlanta TRACON
Tue 07:52:55 PM 33.7333 -84.2833 326° Northwest 266 306 7,200 2,456 Climbing Atlanta TRACON
Tue 07:54:30 PM 33.8169 -84.3514 265° West 259 298 10,600 2,206 Climbing Atlanta Center
Tue 07:55:30 PM 33.8081 -84.4664 270° West 284 327 12,900 2,150 Climbing Atlanta Center
Tue 07:56:30 PM 33.8075 -84.6014 254° West 346 398 14,900 2,100 Climbing Atlanta Center
Tue 07:57:30 PM 33.7778 -84.7236 253° West 372 428 17,100 2,250 Climbing Atlanta Center
Tue 07:58:30 PM 33.7436 -84.8583 252° West 394 453 19,400 2,050 Climbing Atlanta Center
Tue 07:59:30 PM 33.7092 -84.9878 254° West 418 481 21,200 1,750 Climbing Atlanta Center
Tue 08:00:30 PM 33.6769 -85.1197 257° West 418 481 22,900 2,150 Climbing Atlanta Center
Tue 08:01:30 PM 33.6506 -85.2567 272° West 418 481 25,500 1,950 Climbing Atlanta Center
Tue 08:02:30 PM 33.6553 -85.3914 269° West 406 467 26,800 1,350 Climbing Atlanta Center
Tue 08:03:30 PM 33.6539 -85.5286 260° West 406 467 28,200 1,350 Climbing Atlanta Center
Tue 08:04:30 PM 33.6331 -85.6706 259° West 420 483 29,500 1,100 Climbing Atlanta Center
Tue 08:05:30 PM 33.6128 -85.7950 265° West 428 493 30,400 1,000 Climbing Atlanta Center
Tue 08:06:30 PM 33.6022 -85.9344 269° West 428 493 31,500 800 Climbing Atlanta Center
Tue 08:07:30 PM 33.5997 -86.0864 270° West 435 501 32,000 800 Climbing Atlanta Center
Tue 08:08:30 PM 33.5992 -86.2436 268° West 458 527 33,100 1,000 Climbing Atlanta Center
Tue 08:09:30 PM 33.5942 -86.4056 269° West 463 533 34,000 450 Climbing Atlanta Center
Tue 08:10:30 PM 33.5911 -86.5525 269° West 451 519 34,000  Level Atlanta Center
Tue 08:11:30 PM 33.5881 -86.6994 269° West 451 519 34,000  Level Atlanta Center
Tue 08:12:30 PM 33.5850 -86.8442 270° West 445 512 34,000  Level Atlanta Center
Tue 08:13:30 PM 33.5856 -86.9936 268° West 440 506 34,000  Level Atlanta Center
Tue 08:15:25 PM 33.5769 -87.2656 267° West 425 489 34,000  Level Memphis Center
Tue 08:16:25 PM 33.5703 -87.4278 269° West 431 496 34,000  Level Memphis Center
Tue 08:17:25 PM 33.5675 -87.5775 267° West 444 511 34,000  Level Memphis Center
Tue 08:18:25 PM 33.5603 -87.7272 269° West 449 517 34,000  Level Memphis Center
Tue 08:19:25 PM 33.5572 -87.8794 269° West 454 522 34,000  Level Memphis Center
Tue 08:20:25 PM 33.5539 -88.0292 268° West 459 528 34,000  Level Memphis Center
Tue 08:21:25 PM 33.5500 -88.1639 268° West 459 528 34,000  Level Memphis Center
Tue 08:22:25 PM 33.5464 -88.3108 267° West 459 528 34,000  Level Memphis Center
Tue 08:23:25 PM 33.5403 -88.4581 269° West 454 522 34,000  Level Memphis Center
Tue 08:24:25 PM 33.5383 -88.6003 267° West 442 509 34,000  Level Memphis Center
Tue 08:25:25 PM 33.5319 -88.7450 268° West 437 503 34,000  Level Memphis Center
Tue 08:26:25 PM 33.5275 -88.8869 267° West 437 503 34,000  Level Memphis Center
Tue 08:27:25 PM 33.5208 -89.0467 268° West 437 503 34,000  Level Memphis Center
Tue 08:28:25 PM 33.5161 -89.1886 266° West 437 503 34,000  Level Memphis Center
Tue 08:29:25 PM 33.5089 -89.3283 267° West 437 503 34,000  Level Memphis Center
Tue 08:30:25 PM 33.5017 -89.4728 268° West 437 503 34,000  Level Memphis Center
Tue 08:31:25 PM 33.4964 -89.6197 267° West 437 503 34,000  Level Memphis Center
Tue 08:32:25 PM 33.4908 -89.7644 266° West 442 509 34,000  Level Memphis Center
Tue 08:33:25 PM 33.4831 -89.9114 266° West 442 509 34,000  Level Memphis Center
Tue 08:34:25 PM 33.4753 -90.0583 266° West 442 509 34,000  Level Memphis Center
Tue 08:35:25 PM 33.4672 -90.1903 268° West 442 509 34,000  Level Memphis Center
Tue 08:36:25 PM 33.4631 -90.3347 274° West 442 509 34,000  Level Memphis Center
Tue 08:37:25 PM 33.4714 -90.4792 272° West 442 509 34,000  Level Memphis Center
Tue 08:38:25 PM 33.4753 -90.6236 271° West 437 503 34,000  Level Memphis Center
Tue 08:39:25 PM 33.4769 -90.7631 272° West 437 503 34,000  Level Memphis Center
Tue 08:40:25 PM 33.4806 -90.9103 272° West 437 503 34,000  Level Memphis Center
Tue 08:41:25 PM 33.4842 -91.0497 271° West 437 503 34,000  Level Memphis Center
Tue 08:42:25 PM 33.4853 -91.1942 272° West 437 503 34,000  Level Memphis Center
Tue 08:43:25 PM 33.4886 -91.3361 274° West 437 503 34,000  Level Memphis Center
Tue 08:45:03 PM 33.5031 -91.5697 269° West 422 486 34,000  Level Fort Worth Center
Tue 08:46:03 PM 33.5014 -91.7144 271° West 432 497 34,000  Level Fort Worth Center
Tue 08:47:03 PM 33.5042 -91.8711 270° West 432 497 34,000  Level Fort Worth Center
Tue 08:48:03 PM 33.5044 -92.0156 272° West 439 505 34,000  Level Fort Worth Center
Tue 08:49:03 PM 33.5083 -92.1622 271° West 439 505 34,000  Level Fort Worth Center
Tue 08:50:03 PM 33.5103 -92.3067 270° West 439 505 34,000  Level Fort Worth Center
Tue 08:51:03 PM 33.5097 -92.4486 271° West 439 505 34,000  Level Fort Worth Center
Tue 08:52:03 PM 33.5111 -92.5956 270° West 439 505 34,000  Level Fort Worth Center
Tue 08:53:03 PM 33.5106 -92.7400 271° West 439 505 34,000  Level Fort Worth Center
Tue 08:54:03 PM 33.5117 -92.8844 271° West 439 505 34,000  Level Fort Worth Center
Tue 08:55:03 PM 33.5147 -93.0286 269° West 439 505 34,000  Level Fort Worth Center
Tue 08:56:03 PM 33.5133 -93.1708 270° West 439 505 34,000  Level Fort Worth Center
Tue 08:57:03 PM 33.5139 -93.3128 271° West 439 505 34,000  Level Fort Worth Center
Tue 08:58:03 PM 33.5161 -93.4547 270° West 439 505 34,000  Level Fort Worth Center
Tue 08:59:03 PM 33.5161 -93.5867 270° West 444 511 34,000  Level Fort Worth Center
Tue 09:00:03 PM 33.5161 -93.7286 272° West 439 505 34,000  Level Fort Worth Center
Tue 09:01:03 PM 33.5203 -93.8706 270° West 439 505 34,000  Level Fort Worth Center
Tue 09:02:03 PM 33.5203 -94.0175 261° West 439 505 34,000  Level Fort Worth Center
Tue 09:03:03 PM 33.5011 -94.1603 257° West 439 505 34,000  Level Fort Worth Center
Tue 09:04:03 PM 33.4733 -94.3031 256° West 439 505 34,000  Level Fort Worth Center
Tue 09:05:03 PM 33.4453 -94.4411 257° West 439 505 34,000  Level Fort Worth Center
Tue 09:06:03 PM 33.4172 -94.5814 257° West 439 505 34,000  Level Fort Worth Center
Tue 09:07:03 PM 33.3892 -94.7217 257° West 439 505 34,000  Level Fort Worth Center
Tue 09:08:03 PM 33.3628 -94.8592 257° West 434 499 34,000  Level Fort Worth Center
Tue 09:09:03 PM 33.3364 -94.9992 256° West 434 499 34,000  Level Fort Worth Center
Tue 09:10:03 PM 33.3075 -95.1392 257° West 434 499 34,000  Level Fort Worth Center
Tue 09:11:03 PM 33.2808 -95.2764 255° West 434 499 34,000  Level Fort Worth Center
Tue 09:12:03 PM 33.2497 -95.4164 258° West 434 499 34,000  Level Fort Worth Center
Tue 09:13:03 PM 33.2247 -95.5558 259° West 434 499 34,000  Level Fort Worth Center
Tue 09:14:03 PM 33.1997 -95.7056 256° West 427 491 34,000  Level Fort Worth Center
Tue 09:15:03 PM 33.1703 -95.8500 256° West 427 491 34,000  Level Fort Worth Center
Tue 09:16:03 PM 33.1444 -95.9744 257° West 437 503 34,000  Level Fort Worth Center
Tue 09:17:03 PM 33.1169 -96.1161 256° West 437 503 34,000  Level Fort Worth Center
Tue 09:18:03 PM 33.0869 -96.2556 256° West 437 503 34,000  Level Fort Worth Center
Tue 09:19:03 PM 33.0569 -96.3997 256° West 437 503 34,000  Level Fort Worth Center
Tue 09:20:03 PM 33.0286 -96.5389 255° West 432 497 34,000  Level Fort Worth Center
Tue 09:21:03 PM 32.9983 -96.6778 255° West 432 497 34,000  Level Fort Worth Center
Tue 09:22:03 PM 32.9636 -96.8317 255° West 432 497 34,000  Level Fort Worth Center
Tue 09:23:03 PM 32.9328 -96.9728 256° West 443 510 34,000  Level Fort Worth Center
Tue 09:24:03 PM 32.9061 -97.1017 256° West 438 504 34,000  Level Fort Worth Center
Tue 09:25:03 PM 32.8750 -97.2528 257° West 433 498 34,000  Level Fort Worth Center
Tue 09:26:03 PM 32.8481 -97.3911 257° West 455 524 34,000  Level Fort Worth Center
Tue 09:27:03 PM 32.8228 -97.5247 256° West 449 517 34,000  Level Fort Worth Center
Tue 09:28:03 PM 32.7933 -97.6656 257° West 443 510 34,000  Level Fort Worth Center
Tue 09:29:03 PM 32.7658 -97.8061 257° West 435 501 34,000  Level Fort Worth Center
Tue 09:30:03 PM 32.7383 -97.9419 259° West 435 501 34,000  Level Fort Worth Center
Tue 09:31:03 PM 32.7125 -98.0975 262° West 435 501 34,000  Level Fort Worth Center
Tue 09:32:03 PM 32.6950 -98.2378 262° West 435 501 34,000  Level Fort Worth Center
Tue 09:33:03 PM 32.6772 -98.3808 262° West 430 495 34,000  Level Fort Worth Center
Tue 09:34:03 PM 32.6636 -98.5017 260° West 428 493 34,000  Level Fort Worth Center
Tue 09:35:03 PM 32.6436 -98.6422 261° West 428 493 34,000  Level Fort Worth Center
Tue 09:36:03 PM 32.6256 -98.7825 260° West 428 493 34,000  Level Fort Worth Center
Tue 09:37:03 PM 32.6050 -98.9203 262° West 428 493 34,000  Level Fort Worth Center
Tue 09:38:03 PM 32.5886 -99.0606 261° West 428 493 34,000  Level Fort Worth Center
Tue 09:39:03 PM 32.5700 -99.2006 261° West 428 493 34,000  Level Fort Worth Center
Tue 09:40:03 PM 32.5514 -99.3408 261° West 433 498 34,000  Level Fort Worth Center
Tue 09:41:03 PM 32.5322 -99.4833 260° West 433 498 34,000  Level Fort Worth Center
Tue 09:42:03 PM 32.5111 -99.6208 261° West 433 498 34,000  Level Fort Worth Center
Tue 09:43:03 PM 32.4919 -99.7631 262° West 433 498 34,000  Level Fort Worth Center
Tue 09:44:03 PM 32.4722 -99.9203 269° West 439 505 34,000  Level Fort Worth Center
Tue 09:45:03 PM 32.4692 -100.0606 267° West 444 511 34,000  Level Fort Worth Center
Tue 09:46:03 PM 32.4619 -100.2031 265° West 439 505 34,000  Level Fort Worth Center
Tue 09:47:03 PM 32.4525 -100.3431 266° West 439 505 34,000  Level Fort Worth Center
Tue 09:48:03 PM 32.4450 -100.4856 266° West 439 505 34,000  Level Fort Worth Center
Tue 09:49:03 PM 32.4375 -100.6231 266° West 439 505 34,000  Level Fort Worth Center
Tue 09:50:03 PM 32.4294 -100.7631 265° West 434 499 34,000  Level Fort Worth Center
Tue 09:51:03 PM 32.4194 -100.9031 267° West 434 499 34,000  Level Fort Worth Center
Tue 09:52:03 PM 32.4133 -101.0431 264° West 434 499 34,000  Level Fort Worth Center
Tue 09:53:03 PM 32.4011 -101.1803 266° West 434 499 34,000  Level Fort Worth Center
Tue 09:54:03 PM 32.3925 -101.3178 266° West 434 499 34,000  Level Fort Worth Center
Tue 09:55:03 PM 32.3844 -101.4478 266° West 413 475 34,000  Level Fort Worth Center
Tue 09:56:03 PM 32.3758 -101.5828 265° West 413 475 34,000  Level Fort Worth Center
Tue 09:57:03 PM 32.3650 -101.7175 267° West 406 467 34,000  Level Fort Worth Center
Tue 09:58:03 PM 32.3583 -101.8500 264° West 401 461 34,000  Level Fort Worth Center
Tue 09:59:03 PM 32.3472 -101.9797 264° West 406 467 34,000  Level Fort Worth Center
Tue 10:00:03 PM 32.3364 -102.1094 265° West 406 467 34,000  Level Fort Worth Center
Tue 10:01:03 PM 32.3275 -102.2294 264° West 406 467 34,000  Level Fort Worth Center
Tue 10:02:03 PM 32.3161 -102.3614 265° West 406 467 34,000  Level Fort Worth Center
Tue 10:03:03 PM 32.3067 -102.4961 265° West 406 467 34,000  Level Fort Worth Center
Tue 10:04:03 PM 32.2964 -102.6406 265° West 406 467 34,000  Level Fort Worth Center
Tue 10:05:03 PM 32.2867 -102.7725 265° West 406 467 34,000  Level Fort Worth Center
Tue 10:06:03 PM 32.2769 -102.9047 265° West 406 467 34,000  Level Fort Worth Center
Tue 10:07:45 PM 32.2614 -103.1253 264° West 401 461 34,000  Level Albuquerque Center
Tue 10:08:45 PM 32.2492 -103.2561 264° West 408 470 34,000  Level Albuquerque Center
Tue 10:09:46 PM 32.2369 -103.3867 265° West 408 470 34,000  Level Albuquerque Center
Tue 10:10:45 PM 32.2264 -103.5172 264° West 408 470 34,000  Level Albuquerque Center
Tue 10:11:45 PM 32.2158 -103.6450 264° West 408 470 34,000  Level Albuquerque Center
Tue 10:12:45 PM 32.2033 -103.7781 263° West 408 470 34,000  Level Albuquerque Center
Tue 10:13:45 PM 32.1906 -103.9086 262° West 408 470 34,000  Level Albuquerque Center
Tue 10:14:45 PM 32.1769 -104.0244 265° West 409 471 34,000  Level Albuquerque Center
Tue 10:15:45 PM 32.1681 -104.1522 265° West 404 465 34,000  Level Albuquerque Center
Tue 10:16:45 PM 32.1589 -104.2847 263° West 409 471 34,000  Level Albuquerque Center
Tue 10:17:45 PM 32.1456 -104.4103 264° West 409 471 34,000  Level Albuquerque Center
Tue 10:18:46 PM 32.1342 -104.5456 263° West 409 471 34,000  Level Albuquerque Center
Tue 10:19:45 PM 32.1203 -104.6758 264° West 409 471 34,000  Level Albuquerque Center
Tue 10:20:45 PM 32.1086 -104.8058 263° West 409 471 34,000  Level Albuquerque Center
Tue 10:21:45 PM 32.0947 -104.9361 263° West 409 471 34,000  Level Albuquerque Center
Tue 10:22:45 PM 32.0806 -105.0664 263° West 409 471 34,000  Level Albuquerque Center
Tue 10:23:45 PM 32.0664 -105.1964 268° West 409 471 34,000  Level Albuquerque Center
Tue 10:24:45 PM 32.0622 -105.3289 274° West 409 471 34,000  Level Albuquerque Center
Tue 10:25:45 PM 32.0708 -105.4608 275° West 409 471 34,000  Level Albuquerque Center
Tue 10:26:45 PM 32.0811 -105.5903 274° West 403 464 34,000  Level Albuquerque Center
Tue 10:27:45 PM 32.0892 -105.7250 274° West 403 464 34,000  Level Albuquerque Center
Tue 10:28:45 PM 32.0972 -105.8572 275° West 403 464 34,000  Level Albuquerque Center
Tue 10:29:45 PM 32.1072 -105.9892 274° West 408 470 34,000  Level Albuquerque Center
Tue 10:30:45 PM 32.1147 -106.1239 274° West 408 470 34,000  Level Albuquerque Center
Tue 10:31:45 PM 32.1225 -106.2586 275° West 408 470 34,000  Level Albuquerque Center
Tue 10:32:45 PM 32.1319 -106.3931 275° West 408 470 34,000  Level Albuquerque Center
Tue 10:33:45 PM 32.1414 -106.5303 275° West 413 475 34,000  Level Albuquerque Center
Tue 10:34:45 PM 32.1506 -106.6625 272° West 413 475 34,000  Level Albuquerque Center
Tue 10:35:45 PM 32.1553 -106.7972 274° West 413 475 34,000  Level Albuquerque Center
Tue 10:36:45 PM 32.1642 -106.9319 272° West 418 481 34,000  Level Albuquerque Center
Tue 10:37:45 PM 32.1689 -107.0669 273° West 418 481 34,000  Level Albuquerque Center
Tue 10:38:45 PM 32.1753 -107.2164 273° West 423 487 34,000  Level Albuquerque Center
Tue 10:39:45 PM 32.1817 -107.3536 275° West 418 481 34,000  Level Albuquerque Center
Tue 10:40:45 PM 32.1919 -107.4861 273° West 423 487 34,000  Level Albuquerque Center
Tue 10:41:45 PM 32.1981 -107.6236 273° West 423 487 34,000  Level Albuquerque Center
Tue 10:42:45 PM 32.2039 -107.7608 273° West 423 487 34,000  Level Albuquerque Center
Tue 10:43:45 PM 32.2097 -107.8933 273° West 423 487 34,000  Level Albuquerque Center
Tue 10:44:45 PM 32.2153 -108.0308 274° West 423 487 34,000  Level Albuquerque Center
Tue 10:45:45 PM 32.2228 -108.1706 273° West 423 487 34,000  Level Albuquerque Center
Tue 10:46:45 PM 32.2281 -108.3056 273° West 423 487 34,000  Level Albuquerque Center
Tue 10:47:45 PM 32.2331 -108.4381 274° West 423 487 34,000  Level Albuquerque Center
Tue 10:48:45 PM 32.2403 -108.5683 273° West 412 474 34,000  Level Albuquerque Center
Tue 10:49:45 PM 32.2453 -108.6933 274° West 401 461 34,000  Level Albuquerque Center
Tue 10:50:45 PM 32.2519 -108.8161 272° West 390 449 34,000  Level Albuquerque Center
Tue 10:51:45 PM 32.2567 -108.9464 272° West 390 449 34,000  Level Albuquerque Center
Tue 10:52:45 PM 32.2611 -109.0767 272° West 390 449 34,000  Level Albuquerque Center
Tue 10:53:45 PM 32.2656 -109.2067 280° West 395 455 34,000  Level Albuquerque Center
Tue 10:54:45 PM 32.2842 -109.3372 286° West 402 463 34,000  Level Albuquerque Center
Tue 10:55:45 PM 32.3156 -109.4656 287° West 407 468 34,000  Level Albuquerque Center
Tue 10:56:45 PM 32.3467 -109.5892 285° West 407 468 34,000  Level Albuquerque Center
Tue 10:57:45 PM 32.3756 -109.7128 287° West 401 461 34,000 -149 Level Albuquerque Center
Tue 10:58:46 PM 32.4064 -109.8342 285° West 396 456 33,700 -1,100 Descending Albuquerque Center
Tue 10:59:45 PM 32.4369 -109.9653 286° West 401 461 31,800 -1,916 Descending Albuquerque Center
Tue 11:00:45 PM 32.4656 -110.0817 286° West 394 453 29,900 -2,050 Descending Albuquerque Center
Tue 11:01:45 PM 32.4942 -110.2008 286° West 384 442 27,700 -2,200 Descending Albuquerque Center
Tue 11:02:45 PM 32.5228 -110.3175 286° West 378 435 25,500 -1,850 Descending Albuquerque Center
Tue 11:03:45 PM 32.5472 -110.4192 288° West 372 428 24,000 -750 Descending Albuquerque Center
Tue 11:04:45 PM 32.5758 -110.5261 291° West 358 412 24,000 -250 Level Albuquerque Center
Tue 11:05:45 PM 32.6122 -110.6383 303° West 353 406 23,500 -992 Descending Albuquerque Center
Tue 11:06:46 PM 32.6719 -110.7467 303° West 353 406 22,000 -1,700 Descending Albuquerque Center
Tue 11:07:45 PM 32.7253 -110.8450 303° West 353 406 20,100 -1,714 Descending Albuquerque Center
Tue 11:08:45 PM 32.7769 -110.9408 302° West 353 406 18,600 -1,600 Descending Albuquerque Center
Tue 11:09:45 PM 32.8222 -111.0267 302° West 343 395 16,900 -1,650 Descending Albuquerque Center
Tue 11:10:45 PM 32.8656 -111.1103 298° West 315 362 15,300 -1,500 Descending Albuquerque Center
Tue 11:11:45 PM 32.9044 -111.1961 299° West 304 350 13,900 -1,150 Descending Albuquerque Center
Tue 11:12:45 PM 32.9397 -111.2717 299° West 299 344 13,000 -800 Descending Albuquerque Center
Tue 11:13:45 PM 32.9806 -111.3578 298° West 299 344 12,300 -744 Descending Albuquerque Center
Tue 11:14:46 PM 33.0194 -111.4439 315° West 299 344 11,500 -1,080 Descending Albuquerque Center
Tue 11:17:05 PM 33.1500 -111.6000 342° North 298 343 8,700 -1,055 Descending Phoenix TRACON
Tue 11:18:05 PM 33.2333 -111.6333 360° North 289 333 8,000 -700 Descending Phoenix TRACON
Tue 11:19:05 PM 33.3000 -111.6333 360° North 246 283 7,300 -496 Descending Phoenix TRACON
Tue 11:20:06 PM 33.3667 -111.6333 360° North 235 270 7,000 -150 Descending Phoenix TRACON
Tue 11:21:05 PM 33.4167 -111.6333 292° West 188 216 7,000 -504 Level Phoenix TRACON
Tue 11:22:05 PM 33.4333 -111.6833 270° West 180 207 6,000 -942 Descending Phoenix TRACON
Tue 11:23:06 PM 33.4333 -111.7500 270° West 180 207 5,100 -942 Descending Phoenix TRACON
Tue 11:24:06 PM 33.4333 -111.8000 270° West 175 201 4,100 -1,000 Descending Phoenix TRACON

Login

Don't have an account? Register now (free) for customized features, flight alerts, and more!